sensor_id;sensor_type;location;lat;lon;timestamp;temperature;humidity
22623;DHT22;11478;51.094;7.030;2023-12-29T00:00:02;8.70;99.90
22623;DHT22;11478;51.094;7.030;2023-12-29T00:02:28;8.70;99.90
22623;DHT22;11478;51.094;7.030;2023-12-29T00:04:54;8.80;99.90
22623;DHT22;11478;51.094;7.030;2023-12-29T00:07:20;8.80;99.90
22623;DHT22;11478;51.094;7.030;2023-12-29T00:09:47;8.80;99.90
22623;DHT22;11478;51.094;7.030;2023-12-29T00:12:12;8.80;99.90
22623;DHT22;11478;51.094;7.030;2023-12-29T00:14:51;8.90;99.90
22623;DHT22;11478;51.094;7.030;2023-12-29T00:17:17;8.90;99.90
22623;DHT22;11478;51.094;7.030;2023-12-29T00:19:42;8.90;99.90
22623;DHT22;11478;51.094;7.030;2023-12-29T00:22:08;9.00;99.90
22623;DHT22;11478;51.094;7.030;2023-12-29T00:24:36;9.00;99.90
22623;DHT22;11478;51.094;7.030;2023-12-29T00:27:02;9.00;99.90
22623;DHT22;11478;51.094;7.030;2023-12-29T00:29:28;9.00;99.90
22623;DHT22;11478;51.094;7.030;2023-12-29T00:31:58;9.00;99.90
22623;DHT22;11478;51.094;7.030;2023-12-29T00:34:28;9.00;99.90
22623;DHT22;11478;51.094;7.030;2023-12-29T00:36:54;9.10;99.90
22623;DHT22;11478;51.094;7.030;2023-12-29T00:39:19;9.10;99.90
22623;DHT22;11478;51.094;7.030;2023-12-29T00:42:05;9.10;99.90
22623;DHT22;11478;51.094;7.030;2023-12-29T00:44:34;9.10;99.90
22623;DHT22;11478;51.094;7.030;2023-12-29T00:47:01;9.10;99.90
22623;DHT22;11478;51.094;7.030;2023-12-29T00:49:32;9.10;99.90
22623;DHT22;11478;51.094;7.030;2023-12-29T00:51:57;9.10;99.90
22623;DHT22;11478;51.094;7.030;2023-12-29T00:54:24;9.20;99.90
22623;DHT22;11478;51.094;7.030;2023-12-29T00:56:51;9.20;99.90
22623;DHT22;11478;51.094;7.030;2023-12-29T00:59:23;9.20;99.90
22623;DHT22;11478;51.094;7.030;2023-12-29T01:01:49;9.30;99.90
22623;DHT22;11478;51.094;7.030;2023-12-29T01:04:17;9.30;99.90
22623;DHT22;11478;51.094;7.030;2023-12-29T01:06:42;9.30;99.90
22623;DHT22;11478;51.094;7.030;2023-12-29T01:09:17;9.40;99.90
22623;DHT22;11478;51.094;7.030;2023-12-29T01:11:43;9.40;99.90
22623;DHT22;11478;51.094;7.030;2023-12-29T01:14:11;9.40;99.90
22623;DHT22;11478;51.094;7.030;2023-12-29T01:16:37;9.40;99.90
22623;DHT22;11478;51.094;7.030;2023-12-29T01:19:03;9.40;99.90
22623;DHT22;11478;51.094;7.030;2023-12-29T01:21:28;9.30;99.90
22623;DHT22;11478;51.094;7.030;2023-12-29T01:24:02;9.30;99.90
22623;DHT22;11478;51.094;7.030;2023-12-29T01:26:33;9.30;99.90
22623;DHT22;11478;51.094;7.030;2023-12-29T01:29:02;9.30;99.90
22623;DHT22;11478;51.094;7.030;2023-12-29T01:31:29;9.30;99.90
22623;DHT22;11478;51.094;7.030;2023-12-29T01:33:56;9.30;99.90
22623;DHT22;11478;51.094;7.030;2023-12-29T01:36:22;9.20;99.90
22623;DHT22;11478;51.094;7.030;2023-12-29T01:38:49;9.20;99.90
22623;DHT22;11478;51.094;7.030;2023-12-29T01:41:18;9.20;99.90
22623;DHT22;11478;51.094;7.030;2023-12-29T01:46:33;9.10;99.90
22623;DHT22;11478;51.094;7.030;2023-12-29T01:49:00;9.20;99.90
22623;DHT22;11478;51.094;7.030;2023-12-29T01:51:27;9.20;99.90
22623;DHT22;11478;51.094;7.030;2023-12-29T01:54:01;9.20;99.90
22623;DHT22;11478;51.094;7.030;2023-12-29T01:56:27;9.20;99.90
22623;DHT22;11478;51.094;7.030;2023-12-29T01:58:55;9.20;99.90
22623;DHT22;11478;51.094;7.030;2023-12-29T02:01:21;9.20;99.90
22623;DHT22;11478;51.094;7.030;2023-12-29T02:03:49;9.20;99.90
22623;DHT22;11478;51.094;7.030;2023-12-29T02:06:16;9.30;99.90
22623;DHT22;11478;51.094;7.030;2023-12-29T02:08:45;9.30;99.90
22623;DHT22;11478;51.094;7.030;2023-12-29T02:11:11;9.30;99.90
22623;DHT22;11478;51.094;7.030;2023-12-29T02:13:41;9.30;99.90
22623;DHT22;11478;51.094;7.030;2023-12-29T02:16:37;9.30;99.90
22623;DHT22;11478;51.094;7.030;2023-12-29T02:19:13;9.20;99.90
22623;DHT22;11478;51.094;7.030;2023-12-29T02:21:45;9.30;99.90
22623;DHT22;11478;51.094;7.030;2023-12-29T02:24:14;9.30;99.90
22623;DHT22;11478;51.094;7.030;2023-12-29T02:26:42;9.30;99.90
22623;DHT22;11478;51.094;7.030;2023-12-29T02:29:14;9.30;99.90
22623;DHT22;11478;51.094;7.030;2023-12-29T02:31:44;9.40;99.90
22623;DHT22;11478;51.094;7.030;2023-12-29T02:34:12;9.40;99.90
22623;DHT22;11478;51.094;7.030;2023-12-29T02:36:40;9.50;99.90
22623;DHT22;11478;51.094;7.030;2023-12-29T02:39:13;9.50;99.90
22623;DHT22;11478;51.094;7.030;2023-12-29T02:41:47;9.60;99.90
22623;DHT22;11478;51.094;7.030;2023-12-29T02:44:13;9.50;99.90
22623;DHT22;11478;51.094;7.030;2023-12-29T02:46:47;9.60;99.90
22623;DHT22;11478;51.094;7.030;2023-12-29T02:49:13;9.60;99.90
22623;DHT22;11478;51.094;7.030;2023-12-29T02:51:40;9.60;99.90
22623;DHT22;11478;51.094;7.030;2023-12-29T02:54:06;9.60;99.90
22623;DHT22;11478;51.094;7.030;2023-12-29T02:56:33;9.60;99.90
22623;DHT22;11478;51.094;7.030;2023-12-29T02:58:59;9.60;99.90
22623;DHT22;11478;51.094;7.030;2023-12-29T03:01:25;9.60;99.90
22623;DHT22;11478;51.094;7.030;2023-12-29T03:03:56;9.60;99.90
22623;DHT22;11478;51.094;7.030;2023-12-29T03:06:22;9.60;99.90
22623;DHT22;11478;51.094;7.030;2023-12-29T03:08:48;9.60;99.90
22623;DHT22;11478;51.094;7.030;2023-12-29T03:11:13;9.70;99.90
22623;DHT22;11478;51.094;7.030;2023-12-29T03:13:40;9.70;99.90
22623;DHT22;11478;51.094;7.030;2023-12-29T03:16:06;9.70;99.90
22623;DHT22;11478;51.094;7.030;2023-12-29T03:18:32;9.70;99.90
22623;DHT22;11478;51.094;7.030;2023-12-29T03:20:58;9.80;99.90
22623;DHT22;11478;51.094;7.030;2023-12-29T03:23:25;9.80;99.90
22623;DHT22;11478;51.094;7.030;2023-12-29T03:25:51;9.80;99.90
22623;DHT22;11478;51.094;7.030;2023-12-29T03:28:25;9.80;99.90
22623;DHT22;11478;51.094;7.030;2023-12-29T03:30:50;9.80;99.90
22623;DHT22;11478;51.094;7.030;2023-12-29T03:33:23;9.80;99.90
22623;DHT22;11478;51.094;7.030;2023-12-29T03:35:49;9.80;99.90
22623;DHT22;11478;51.094;7.030;2023-12-29T03:38:15;9.90;99.90
22623;DHT22;11478;51.094;7.030;2023-12-29T03:40:41;9.90;99.90
22623;DHT22;11478;51.094;7.030;2023-12-29T03:43:12;9.90;99.90
22623;DHT22;11478;51.094;7.030;2023-12-29T03:45:38;10.00;99.90
22623;DHT22;11478;51.094;7.030;2023-12-29T03:48:14;9.90;99.90
22623;DHT22;11478;51.094;7.030;2023-12-29T03:50:40;10.00;99.90
22623;DHT22;11478;51.094;7.030;2023-12-29T03:53:06;10.10;99.90
22623;DHT22;11478;51.094;7.030;2023-12-29T03:55:31;10.10;99.90
22623;DHT22;11478;51.094;7.030;2023-12-29T03:57:57;10.10;99.90
22623;DHT22;11478;51.094;7.030;2023-12-29T04:00:24;10.10;99.90
22623;DHT22;11478;51.094;7.030;2023-12-29T04:02:50;10.10;99.90
22623;DHT22;11478;51.094;7.030;2023-12-29T04:05:15;10.10;99.90
22623;DHT22;11478;51.094;7.030;2023-12-29T04:07:45;10.10;99.90
22623;DHT22;11478;51.094;7.030;2023-12-29T04:10:11;10.10;99.90
22623;DHT22;11478;51.094;7.030;2023-12-29T04:12:37;10.10;99.90
22623;DHT22;11478;51.094;7.030;2023-12-29T04:15:08;10.10;99.90
22623;DHT22;11478;51.094;7.030;2023-12-29T04:17:38;10.10;99.90
22623;DHT22;11478;51.094;7.030;2023-12-29T04:23:10;10.00;99.90
22623;DHT22;11478;51.094;7.030;2023-12-29T04:25:37;10.00;99.90
22623;DHT22;11478;51.094;7.030;2023-12-29T04:28:04;10.00;99.90
22623;DHT22;11478;51.094;7.030;2023-12-29T04:30:30;10.00;99.90
22623;DHT22;11478;51.094;7.030;2023-12-29T04:32:56;10.00;99.90
22623;DHT22;11478;51.094;7.030;2023-12-29T04:35:30;10.00;99.90
22623;DHT22;11478;51.094;7.030;2023-12-29T04:37:56;10.00;99.90
22623;DHT22;11478;51.094;7.030;2023-12-29T04:40:28;10.10;99.90
22623;DHT22;11478;51.094;7.030;2023-12-29T04:42:54;10.10;99.90
22623;DHT22;11478;51.094;7.030;2023-12-29T04:45:19;10.10;99.90
22623;DHT22;11478;51.094;7.030;2023-12-29T04:47:46;10.10;99.90
22623;DHT22;11478;51.094;7.030;2023-12-29T04:50:14;10.10;99.90
22623;DHT22;11478;51.094;7.030;2023-12-29T04:52:40;10.10;99.90
22623;DHT22;11478;51.094;7.030;2023-12-29T04:55:19;10.10;99.90
22623;DHT22;11478;51.094;7.030;2023-12-29T04:57:45;10.10;99.90
22623;DHT22;11478;51.094;7.030;2023-12-29T05:00:12;10.20;99.90
22623;DHT22;11478;51.094;7.030;2023-12-29T05:02:38;10.10;99.90
22623;DHT22;11478;51.094;7.030;2023-12-29T05:05:10;10.10;99.90
22623;DHT22;11478;51.094;7.030;2023-12-29T05:07:36;10.10;99.90
22623;DHT22;11478;51.094;7.030;2023-12-29T05:10:02;10.10;99.90
22623;DHT22;11478;51.094;7.030;2023-12-29T05:12:29;10.20;99.90
22623;DHT22;11478;51.094;7.030;2023-12-29T05:15:16;10.20;99.90
22623;DHT22;11478;51.094;7.030;2023-12-29T05:17:42;10.20;99.90
22623;DHT22;11478;51.094;7.030;2023-12-29T05:20:09;10.20;99.90
22623;DHT22;11478;51.094;7.030;2023-12-29T05:22:35;10.20;99.90
22623;DHT22;11478;51.094;7.030;2023-12-29T05:25:03;10.20;99.90
22623;DHT22;11478;51.094;7.030;2023-12-29T05:27:29;10.20;99.90
22623;DHT22;11478;51.094;7.030;2023-12-29T05:29:56;10.10;99.90
22623;DHT22;11478;51.094;7.030;2023-12-29T05:32:21;10.10;99.90
22623;DHT22;11478;51.094;7.030;2023-12-29T05:34:49;10.00;99.90
22623;DHT22;11478;51.094;7.030;2023-12-29T05:37:15;10.00;99.90
22623;DHT22;11478;51.094;7.030;2023-12-29T05:39:42;10.00;99.90
22623;DHT22;11478;51.094;7.030;2023-12-29T05:42:08;10.00;99.90
22623;DHT22;11478;51.094;7.030;2023-12-29T05:44:36;9.90;99.90
22623;DHT22;11478;51.094;7.030;2023-12-29T05:47:09;9.90;99.90
22623;DHT22;11478;51.094;7.030;2023-12-29T05:49:47;9.80;99.90
22623;DHT22;11478;51.094;7.030;2023-12-29T05:52:15;9.80;99.90
22623;DHT22;11478;51.094;7.030;2023-12-29T05:54:55;9.80;99.90
22623;DHT22;11478;51.094;7.030;2023-12-29T05:57:21;9.80;99.90
22623;DHT22;11478;51.094;7.030;2023-12-29T05:59:47;9.80;99.90
22623;DHT22;11478;51.094;7.030;2023-12-29T06:02:12;9.80;99.90
22623;DHT22;11478;51.094;7.030;2023-12-29T06:04:39;9.80;99.90
22623;DHT22;11478;51.094;7.030;2023-12-29T06:07:05;9.80;99.90
22623;DHT22;11478;51.094;7.030;2023-12-29T06:09:32;9.70;99.90
22623;DHT22;11478;51.094;7.030;2023-12-29T06:11:58;9.60;99.90
22623;DHT22;11478;51.094;7.030;2023-12-29T06:14:29;9.60;99.90
22623;DHT22;11478;51.094;7.030;2023-12-29T06:16:55;9.50;99.90
22623;DHT22;11478;51.094;7.030;2023-12-29T06:19:20;9.50;99.90
22623;DHT22;11478;51.094;7.030;2023-12-29T06:21:48;9.40;99.90
22623;DHT22;11478;51.094;7.030;2023-12-29T06:24:30;9.30;99.90
22623;DHT22;11478;51.094;7.030;2023-12-29T06:26:55;9.30;99.90
22623;DHT22;11478;51.094;7.030;2023-12-29T06:29:25;9.30;99.90
22623;DHT22;11478;51.094;7.030;2023-12-29T06:31:51;9.20;99.90
22623;DHT22;11478;51.094;7.030;2023-12-29T06:34:20;9.10;99.90
22623;DHT22;11478;51.094;7.030;2023-12-29T06:36:46;9.10;99.90
22623;DHT22;11478;51.094;7.030;2023-12-29T06:39:14;9.00;99.90
22623;DHT22;11478;51.094;7.030;2023-12-29T06:41:40;9.10;99.90
22623;DHT22;11478;51.094;7.030;2023-12-29T06:44:06;9.10;99.90
22623;DHT22;11478;51.094;7.030;2023-12-29T06:46:31;9.10;99.90
22623;DHT22;11478;51.094;7.030;2023-12-29T06:48:57;9.10;99.90
22623;DHT22;11478;51.094;7.030;2023-12-29T06:51:23;9.10;99.90
22623;DHT22;11478;51.094;7.030;2023-12-29T06:53:52;9.10;99.90
22623;DHT22;11478;51.094;7.030;2023-12-29T06:56:18;9.10;99.90
22623;DHT22;11478;51.094;7.030;2023-12-29T06:58:47;9.10;99.90
22623;DHT22;11478;51.094;7.030;2023-12-29T07:01:13;9.10;99.90
22623;DHT22;11478;51.094;7.030;2023-12-29T07:03:39;9.10;99.90
22623;DHT22;11478;51.094;7.030;2023-12-29T07:06:05;9.10;99.90
22623;DHT22;11478;51.094;7.030;2023-12-29T07:08:31;9.20;99.90
22623;DHT22;11478;51.094;7.030;2023-12-29T07:10:56;9.20;99.90
22623;DHT22;11478;51.094;7.030;2023-12-29T07:13:23;9.20;99.90
22623;DHT22;11478;51.094;7.030;2023-12-29T07:15:49;9.30;99.90
22623;DHT22;11478;51.094;7.030;2023-12-29T07:18:15;9.40;99.90
22623;DHT22;11478;51.094;7.030;2023-12-29T07:20:42;9.40;99.90
22623;DHT22;11478;51.094;7.030;2023-12-29T07:23:13;9.40;99.90
22623;DHT22;11478;51.094;7.030;2023-12-29T07:25:39;9.40;99.90
22623;DHT22;11478;51.094;7.030;2023-12-29T07:28:09;9.40;99.90
22623;DHT22;11478;51.094;7.030;2023-12-29T07:30:35;9.40;99.90
22623;DHT22;11478;51.094;7.030;2023-12-29T07:33:03;9.40;99.90
22623;DHT22;11478;51.094;7.030;2023-12-29T07:35:29;9.30;99.90
22623;DHT22;11478;51.094;7.030;2023-12-29T07:48:39;9.30;99.90
22623;DHT22;11478;51.094;7.030;2023-12-29T07:53:55;9.20;99.90
22623;DHT22;11478;51.094;7.030;2023-12-29T07:56:25;9.30;99.90
22623;DHT22;11478;51.094;7.030;2023-12-29T07:58:51;9.30;99.90
22623;DHT22;11478;51.094;7.030;2023-12-29T08:01:26;9.30;99.90
22623;DHT22;11478;51.094;7.030;2023-12-29T08:03:53;9.40;99.90
22623;DHT22;11478;51.094;7.030;2023-12-29T08:06:23;9.40;99.90
22623;DHT22;11478;51.094;7.030;2023-12-29T08:08:49;9.40;99.90
22623;DHT22;11478;51.094;7.030;2023-12-29T08:11:17;9.40;99.90
22623;DHT22;11478;51.094;7.030;2023-12-29T08:13:50;9.30;99.90
22623;DHT22;11478;51.094;7.030;2023-12-29T08:16:20;9.20;99.90
22623;DHT22;11478;51.094;7.030;2023-12-29T08:19:00;9.10;99.90
22623;DHT22;11478;51.094;7.030;2023-12-29T08:21:35;9.10;99.90
22623;DHT22;11478;51.094;7.030;2023-12-29T08:24:01;9.00;99.90
22623;DHT22;11478;51.094;7.030;2023-12-29T08:26:33;9.00;99.90
22623;DHT22;11478;51.094;7.030;2023-12-29T08:28:58;8.90;99.90
22623;DHT22;11478;51.094;7.030;2023-12-29T08:31:24;8.90;99.90
22623;DHT22;11478;51.094;7.030;2023-12-29T08:33:54;8.90;99.90
22623;DHT22;11478;51.094;7.030;2023-12-29T08:36:21;8.90;99.90
22623;DHT22;11478;51.094;7.030;2023-12-29T08:38:50;8.80;99.90
22623;DHT22;11478;51.094;7.030;2023-12-29T08:41:18;8.80;99.90
22623;DHT22;11478;51.094;7.030;2023-12-29T08:43:44;8.80;99.90
22623;DHT22;11478;51.094;7.030;2023-12-29T08:46:10;8.80;99.90
22623;DHT22;11478;51.094;7.030;2023-12-29T08:48:36;8.80;99.90
22623;DHT22;11478;51.094;7.030;2023-12-29T08:51:12;8.80;99.90
22623;DHT22;11478;51.094;7.030;2023-12-29T08:53:38;8.80;99.90
22623;DHT22;11478;51.094;7.030;2023-12-29T08:56:07;8.70;99.90
22623;DHT22;11478;51.094;7.030;2023-12-29T08:58:39;8.70;99.90
22623;DHT22;11478;51.094;7.030;2023-12-29T09:01:05;8.70;99.90
22623;DHT22;11478;51.094;7.030;2023-12-29T09:03:38;8.70;99.90
22623;DHT22;11478;51.094;7.030;2023-12-29T09:06:14;8.70;99.90
22623;DHT22;11478;51.094;7.030;2023-12-29T09:08:40;8.70;99.90
22623;DHT22;11478;51.094;7.030;2023-12-29T09:11:06;8.70;99.90
22623;DHT22;11478;51.094;7.030;2023-12-29T09:13:35;8.70;99.90
22623;DHT22;11478;51.094;7.030;2023-12-29T09:16:00;8.70;99.90
22623;DHT22;11478;51.094;7.030;2023-12-29T09:18:34;8.70;99.90
22623;DHT22;11478;51.094;7.030;2023-12-29T09:21:00;8.70;99.90
22623;DHT22;11478;51.094;7.030;2023-12-29T09:23:26;8.70;99.90
22623;DHT22;11478;51.094;7.030;2023-12-29T09:25:52;8.70;99.90
22623;DHT22;11478;51.094;7.030;2023-12-29T09:28:17;8.80;99.90
22623;DHT22;11478;51.094;7.030;2023-12-29T09:30:43;8.80;99.90
22623;DHT22;11478;51.094;7.030;2023-12-29T09:33:09;8.80;99.90
22623;DHT22;11478;51.094;7.030;2023-12-29T09:35:38;8.90;99.90
22623;DHT22;11478;51.094;7.030;2023-12-29T09:38:04;8.90;99.90
22623;DHT22;11478;51.094;7.030;2023-12-29T09:40:30;8.90;99.90
22623;DHT22;11478;51.094;7.030;2023-12-29T09:42:57;9.00;99.90
22623;DHT22;11478;51.094;7.030;2023-12-29T09:45:24;9.00;99.90
22623;DHT22;11478;51.094;7.030;2023-12-29T09:47:51;8.90;99.90
22623;DHT22;11478;51.094;7.030;2023-12-29T09:50:21;9.00;99.90
22623;DHT22;11478;51.094;7.030;2023-12-29T09:52:48;9.00;99.90
22623;DHT22;11478;51.094;7.030;2023-12-29T09:55:16;9.00;99.90
22623;DHT22;11478;51.094;7.030;2023-12-29T09:57:43;9.10;99.90
22623;DHT22;11478;51.094;7.030;2023-12-29T10:00:16;9.10;99.90
22623;DHT22;11478;51.094;7.030;2023-12-29T10:02:42;9.10;99.90
22623;DHT22;11478;51.094;7.030;2023-12-29T10:05:08;9.10;99.90
22623;DHT22;11478;51.094;7.030;2023-12-29T10:07:39;9.10;99.90
22623;DHT22;11478;51.094;7.030;2023-12-29T10:10:12;9.20;99.90
22623;DHT22;11478;51.094;7.030;2023-12-29T10:12:39;9.20;99.90
22623;DHT22;11478;51.094;7.030;2023-12-29T10:25:42;9.30;99.90
22623;DHT22;11478;51.094;7.030;2023-12-29T10:28:12;9.40;99.90
22623;DHT22;11478;51.094;7.030;2023-12-29T10:30:38;9.40;99.90
22623;DHT22;11478;51.094;7.030;2023-12-29T10:33:08;9.50;99.90
22623;DHT22;11478;51.094;7.030;2023-12-29T10:35:38;9.50;99.90
22623;DHT22;11478;51.094;7.030;2023-12-29T10:38:11;9.50;99.90
22623;DHT22;11478;51.094;7.030;2023-12-29T10:40:38;9.60;99.90
22623;DHT22;11478;51.094;7.030;2023-12-29T10:43:07;9.60;99.90
22623;DHT22;11478;51.094;7.030;2023-12-29T10:45:37;9.60;99.90
22623;DHT22;11478;51.094;7.030;2023-12-29T10:48:04;9.60;99.90
22623;DHT22;11478;51.094;7.030;2023-12-29T10:50:46;9.60;99.90
22623;DHT22;11478;51.094;7.030;2023-12-29T10:53:13;9.70;99.90
22623;DHT22;11478;51.094;7.030;2023-12-29T10:55:40;9.70;99.90
22623;DHT22;11478;51.094;7.030;2023-12-29T10:58:10;9.80;99.90
22623;DHT22;11478;51.094;7.030;2023-12-29T11:00:46;9.80;99.90
22623;DHT22;11478;51.094;7.030;2023-12-29T11:03:16;9.90;99.90
22623;DHT22;11478;51.094;7.030;2023-12-29T11:05:46;10.00;99.90
22623;DHT22;11478;51.094;7.030;2023-12-29T11:08:18;10.10;99.90
22623;DHT22;11478;51.094;7.030;2023-12-29T11:10:44;10.20;99.90
22623;DHT22;11478;51.094;7.030;2023-12-29T11:13:12;10.20;99.90
22623;DHT22;11478;51.094;7.030;2023-12-29T11:15:43;10.30;99.90
22623;DHT22;11478;51.094;7.030;2023-12-29T11:18:14;10.30;99.90
22623;DHT22;11478;51.094;7.030;2023-12-29T11:20:44;10.40;99.90
22623;DHT22;11478;51.094;7.030;2023-12-29T11:23:11;10.40;99.90
22623;DHT22;11478;51.094;7.030;2023-12-29T11:25:44;10.40;99.90
22623;DHT22;11478;51.094;7.030;2023-12-29T11:28:13;10.50;99.90
22623;DHT22;11478;51.094;7.030;2023-12-29T11:30:43;10.50;99.90
22623;DHT22;11478;51.094;7.030;2023-12-29T11:33:34;10.50;99.90
22623;DHT22;11478;51.094;7.030;2023-12-29T11:36:28;10.50;99.90
22623;DHT22;11478;51.094;7.030;2023-12-29T11:41:37;10.40;99.90
22623;DHT22;11478;51.094;7.030;2023-12-29T11:44:26;10.40;99.90
22623;DHT22;11478;51.094;7.030;2023-12-29T11:46:56;10.40;99.90
22623;DHT22;11478;51.094;7.030;2023-12-29T11:49:24;10.40;99.90
22623;DHT22;11478;51.094;7.030;2023-12-29T11:51:50;10.40;99.90
22623;DHT22;11478;51.094;7.030;2023-12-29T11:54:26;10.40;99.90
22623;DHT22;11478;51.094;7.030;2023-12-29T12:03:30;10.50;99.90
22623;DHT22;11478;51.094;7.030;2023-12-29T12:05:57;10.50;99.90
22623;DHT22;11478;51.094;7.030;2023-12-29T12:08:37;10.50;99.90
22623;DHT22;11478;51.094;7.030;2023-12-29T12:14:04;10.50;99.90
22623;DHT22;11478;51.094;7.030;2023-12-29T12:19:13;10.50;99.90
22623;DHT22;11478;51.094;7.030;2023-12-29T12:21:46;10.60;99.90
22623;DHT22;11478;51.094;7.030;2023-12-29T12:24:13;10.60;99.90
22623;DHT22;11478;51.094;7.030;2023-12-29T12:26:41;10.60;99.90
22623;DHT22;11478;51.094;7.030;2023-12-29T12:29:07;10.60;99.90
22623;DHT22;11478;51.094;7.030;2023-12-29T12:31:34;10.60;99.90
22623;DHT22;11478;51.094;7.030;2023-12-29T12:34:00;10.70;99.90
22623;DHT22;11478;51.094;7.030;2023-12-29T12:36:27;10.70;99.90
22623;DHT22;11478;51.094;7.030;2023-12-29T12:38:54;10.70;99.90
22623;DHT22;11478;51.094;7.030;2023-12-29T12:41:24;10.60;99.90
22623;DHT22;11478;51.094;7.030;2023-12-29T12:44:07;10.60;99.90
22623;DHT22;11478;51.094;7.030;2023-12-29T12:49:14;10.50;99.90
22623;DHT22;11478;51.094;7.030;2023-12-29T12:51:44;10.50;99.90
22623;DHT22;11478;51.094;7.030;2023-12-29T12:54:13;10.50;99.90
22623;DHT22;11478;51.094;7.030;2023-12-29T12:56:43;10.40;99.90
22623;DHT22;11478;51.094;7.030;2023-12-29T12:59:12;10.40;99.90
22623;DHT22;11478;51.094;7.030;2023-12-29T13:01:38;10.40;99.90
22623;DHT22;11478;51.094;7.030;2023-12-29T13:04:08;10.40;99.90
22623;DHT22;11478;51.094;7.030;2023-12-29T13:06:43;10.40;99.90
22623;DHT22;11478;51.094;7.030;2023-12-29T13:09:13;10.40;99.90
22623;DHT22;11478;51.094;7.030;2023-12-29T13:11:39;10.40;99.90
22623;DHT22;11478;51.094;7.030;2023-12-29T13:14:18;10.50;99.90
22623;DHT22;11478;51.094;7.030;2023-12-29T13:16:44;10.50;99.90
22623;DHT22;11478;51.094;7.030;2023-12-29T13:19:21;10.50;99.90
22623;DHT22;11478;51.094;7.030;2023-12-29T13:21:50;10.60;99.90
22623;DHT22;11478;51.094;7.030;2023-12-29T13:24:23;10.60;99.90
22623;DHT22;11478;51.094;7.030;2023-12-29T13:26:58;10.60;99.90
22623;DHT22;11478;51.094;7.030;2023-12-29T13:29:31;10.60;99.90
22623;DHT22;11478;51.094;7.030;2023-12-29T13:32:17;10.60;99.90
22623;DHT22;11478;51.094;7.030;2023-12-29T13:35:01;10.60;99.90
22623;DHT22;11478;51.094;7.030;2023-12-29T13:37:33;10.60;99.90
22623;DHT22;11478;51.094;7.030;2023-12-29T13:42:37;10.50;99.90
22623;DHT22;11478;51.094;7.030;2023-12-29T13:45:04;10.50;99.90
22623;DHT22;11478;51.094;7.030;2023-12-29T13:47:31;10.50;99.90
22623;DHT22;11478;51.094;7.030;2023-12-29T13:50:01;10.50;99.90
22623;DHT22;11478;51.094;7.030;2023-12-29T13:52:28;10.50;99.90
22623;DHT22;11478;51.094;7.030;2023-12-29T13:54:54;10.50;99.90
22623;DHT22;11478;51.094;7.030;2023-12-29T13:57:32;10.50;99.90
22623;DHT22;11478;51.094;7.030;2023-12-29T14:02:48;10.50;99.90
22623;DHT22;11478;51.094;7.030;2023-12-29T14:05:39;10.50;99.90
22623;DHT22;11478;51.094;7.030;2023-12-29T14:11:17;10.50;99.90
22623;DHT22;11478;51.094;7.030;2023-12-29T14:13:46;10.50;99.90
22623;DHT22;11478;51.094;7.030;2023-12-29T14:16:24;10.60;99.90
22623;DHT22;11478;51.094;7.030;2023-12-29T14:18:54;10.60;99.90
22623;DHT22;11478;51.094;7.030;2023-12-29T14:21:33;10.60;99.90
22623;DHT22;11478;51.094;7.030;2023-12-29T14:26:30;10.60;99.90
22623;DHT22;11478;51.094;7.030;2023-12-29T14:29:15;10.50;99.90
22623;DHT22;11478;51.094;7.030;2023-12-29T14:31:52;10.50;99.90
22623;DHT22;11478;51.094;7.030;2023-12-29T14:34:18;10.50;99.90
22623;DHT22;11478;51.094;7.030;2023-12-29T14:36:50;10.40;99.90
22623;DHT22;11478;51.094;7.030;2023-12-29T14:39:16;10.30;99.90
22623;DHT22;11478;51.094;7.030;2023-12-29T14:41:42;10.20;99.90
22623;DHT22;11478;51.094;7.030;2023-12-29T14:44:09;10.10;99.90
22623;DHT22;11478;51.094;7.030;2023-12-29T14:46:35;10.10;99.90
22623;DHT22;11478;51.094;7.030;2023-12-29T14:49:02;10.00;99.90
22623;DHT22;11478;51.094;7.030;2023-12-29T14:51:28;10.00;99.90
22623;DHT22;11478;51.094;7.030;2023-12-29T14:53:55;9.90;99.90
22623;DHT22;11478;51.094;7.030;2023-12-29T14:56:21;9.90;99.90
22623;DHT22;11478;51.094;7.030;2023-12-29T14:58:48;9.90;99.90
22623;DHT22;11478;51.094;7.030;2023-12-29T15:01:16;9.80;99.90
22623;DHT22;11478;51.094;7.030;2023-12-29T15:03:42;9.70;99.90
22623;DHT22;11478;51.094;7.030;2023-12-29T15:06:08;9.80;99.90
22623;DHT22;11478;51.094;7.030;2023-12-29T15:08:34;9.70;99.90
22623;DHT22;11478;51.094;7.030;2023-12-29T15:11:07;9.70;99.90
22623;DHT22;11478;51.094;7.030;2023-12-29T15:13:34;9.70;99.90
22623;DHT22;11478;51.094;7.030;2023-12-29T15:16:01;9.70;99.90
22623;DHT22;11478;51.094;7.030;2023-12-29T15:18:28;9.70;99.90
22623;DHT22;11478;51.094;7.030;2023-12-29T15:20:58;9.70;99.90
22623;DHT22;11478;51.094;7.030;2023-12-29T15:23:25;9.60;99.90
22623;DHT22;11478;51.094;7.030;2023-12-29T15:25:53;9.70;99.90
22623;DHT22;11478;51.094;7.030;2023-12-29T15:28:19;9.70;99.90
22623;DHT22;11478;51.094;7.030;2023-12-29T15:30:50;9.70;99.90
22623;DHT22;11478;51.094;7.030;2023-12-29T15:33:20;9.70;99.90
22623;DHT22;11478;51.094;7.030;2023-12-29T15:35:49;9.60;99.90
22623;DHT22;11478;51.094;7.030;2023-12-29T15:38:18;9.60;99.90
22623;DHT22;11478;51.094;7.030;2023-12-29T15:40:45;9.60;99.90
22623;DHT22;11478;51.094;7.030;2023-12-29T15:43:11;9.60;99.90
22623;DHT22;11478;51.094;7.030;2023-12-29T15:45:37;9.60;99.90
22623;DHT22;11478;51.094;7.030;2023-12-29T15:48:06;9.70;99.90
22623;DHT22;11478;51.094;7.030;2023-12-29T15:50:32;9.80;99.90
22623;DHT22;11478;51.094;7.030;2023-12-29T15:52:58;9.80;99.90
22623;DHT22;11478;51.094;7.030;2023-12-29T15:55:23;9.90;99.90
22623;DHT22;11478;51.094;7.030;2023-12-29T15:57:52;9.90;99.90
22623;DHT22;11478;51.094;7.030;2023-12-29T16:00:21;9.90;99.90
22623;DHT22;11478;51.094;7.030;2023-12-29T16:02:49;9.80;99.90
22623;DHT22;11478;51.094;7.030;2023-12-29T16:05:15;9.80;99.90
22623;DHT22;11478;51.094;7.030;2023-12-29T16:07:41;9.70;99.90
22623;DHT22;11478;51.094;7.030;2023-12-29T16:10:07;9.70;99.90
22623;DHT22;11478;51.094;7.030;2023-12-29T16:12:34;9.60;99.90
22623;DHT22;11478;51.094;7.030;2023-12-29T16:15:00;9.60;99.90
22623;DHT22;11478;51.094;7.030;2023-12-29T16:17:26;9.60;99.90
22623;DHT22;11478;51.094;7.030;2023-12-29T16:19:53;9.50;99.90
22623;DHT22;11478;51.094;7.030;2023-12-29T16:22:22;9.50;99.90
22623;DHT22;11478;51.094;7.030;2023-12-29T16:24:50;9.50;99.90
22623;DHT22;11478;51.094;7.030;2023-12-29T16:27:25;9.50;99.90
22623;DHT22;11478;51.094;7.030;2023-12-29T16:29:50;9.60;99.90
22623;DHT22;11478;51.094;7.030;2023-12-29T16:32:24;9.50;99.90
22623;DHT22;11478;51.094;7.030;2023-12-29T16:35:00;9.50;99.90
22623;DHT22;11478;51.094;7.030;2023-12-29T16:37:26;9.60;99.90
22623;DHT22;11478;51.094;7.030;2023-12-29T16:39:54;9.60;99.90
22623;DHT22;11478;51.094;7.030;2023-12-29T16:42:22;9.50;99.90
22623;DHT22;11478;51.094;7.030;2023-12-29T16:44:57;9.60;99.90
22623;DHT22;11478;51.094;7.030;2023-12-29T16:47:23;9.60;99.90